Time;durP1;ratioP1;P1;durP2;ratioP2;P2;SDS_P1;SDS_P2;PMS_P1;PMS_P2;Temp;Humidity;BMP_temperature;BMP_pressure;BME280_temperature;BME280_humidity;BME280_pressure;Samples;Min_cycle;Max_cycle;Signal;HPM_P1;HPM_P2
2023/09/22 00:00:01;;;;;;;12.70;8.23;;;18.70;99.90;;;;;;5016763;28;20041;-79
2023/09/22 00:02:27;;;;;;;13.20;8.48;;;19.00;99.90;;;;;;4983188;28;20375;-78
2023/09/22 00:04:52;;;;;;;10.50;7.95;;;18.70;99.90;;;;;;4997642;28;20505;-78
2023/09/22 00:07:18;;;;;;;10.25;8.18;;;19.00;99.90;;;;;;4997908;28;20075;-78
2023/09/22 00:09:44;;;;;;;14.63;8.52;;;;;;;;;;4981420;28;20041;-78
2023/09/22 00:12:10;;;;;;;13.88;8.95;;;19.10;99.90;;;;;;4997756;28;20065;-79
2023/09/22 00:14:36;;;;;;;12.18;7.90;;;18.80;99.90;;;;;;4998113;28;20494;-78
2023/09/22 00:17:02;;;;;;;14.55;8.35;;;18.60;99.90;;;;;;5015396;28;20045;-78
2023/09/22 00:19:28;;;;;;;14.30;8.95;;;;;;;;;;4997184;28;20038;-78
2023/09/22 00:21:56;;;;;;;13.60;8.82;;;18.80;99.90;;;;;;4982937;28;20049;-79
2023/09/22 00:24:22;;;;;;;9.95;7.75;;;18.70;99.90;;;;;;5000099;28;20034;-78
2023/09/22 00:26:48;;;;;;;15.23;10.07;;;19.10;99.90;;;;;;4983749;28;20042;-78
2023/09/22 00:29:14;;;;;;;16.38;10.15;;;19.20;99.90;;;;;;4999064;28;20068;-78
2023/09/22 00:31:39;;;;;;;15.77;10.52;;;19.00;99.90;;;;;;4996793;28;20531;-78
2023/09/22 00:34:05;;;;;;;15.02;10.40;;;19.30;99.90;;;;;;4980790;28;20045;-78
2023/09/22 00:36:33;;;;;;;13.63;10.20;;;18.90;99.90;;;;;;4996329;28;20083;-78
2023/09/22 00:38:59;;;;;;;17.10;11.52;;;19.10;99.90;;;;;;4996360;28;20073;-78
2023/09/22 00:41:25;;;;;;;15.85;11.57;;;18.60;99.90;;;;;;4980721;28;20144;-78
2023/09/22 00:43:51;;;;;;;17.85;12.93;;;;;;;;;;4980793;28;20080;-78
2023/09/22 00:46:22;;;;;;;16.92;12.50;;;18.70;99.90;;;;;;4996432;28;20115;-78
2023/09/22 00:48:49;;;;;;;19.77;13.35;;;18.90;99.90;;;;;;4980460;28;20081;-78
2023/09/22 00:51:18;;;;;;;16.38;11.85;;;18.90;99.90;;;;;;4996446;28;20416;-78
2023/09/22 00:53:43;;;;;;;17.35;12.32;;;19.00;99.90;;;;;;4996613;28;20412;-78
2023/09/22 00:56:09;;;;;;;16.38;12.27;;;19.30;99.90;;;;;;4980733;28;20038;-78
2023/09/22 00:58:36;;;;;;;19.75;13.85;;;19.30;99.90;;;;;;4997180;28;20073;-78
2023/09/22 01:01:02;;;;;;;18.75;13.77;;;18.80;99.90;;;;;;4981167;28;20065;-78
2023/09/22 01:03:29;;;;;;;21.83;15.48;;;19.30;99.90;;;;;;4996832;28;20489;-78
2023/09/22 01:05:55;;;;;;;18.15;13.85;;;19.20;99.90;;;;;;4980438;28;20510;-78
2023/09/22 01:08:21;;;;;;;21.08;15.20;;;19.10;99.90;;;;;;4996739;28;20034;-78
2023/09/22 01:10:46;;;;;;;23.38;15.57;;;18.90;99.90;;;;;;4997223;28;20112;-78
2023/09/22 01:13:13;;;;;;;20.75;14.60;;;18.90;99.90;;;;;;4996602;28;20030;-78
2023/09/22 01:15:41;;;;;;;19.42;14.00;;;18.60;99.90;;;;;;4981263;28;20042;-78
2023/09/22 01:18:07;;;;;;;18.05;13.68;;;19.10;99.90;;;;;;4980214;28;20084;-78
2023/09/22 01:20:43;;;;;;;19.25;14.88;;;18.70;99.90;;;;;;4998740;28;20040;-78
2023/09/22 01:23:09;;;;;;;26.35;18.60;;;;;;;;;;4983299;28;20049;-78
2023/09/22 01:25:36;;;;;;;22.23;15.50;;;;;;;;;;4996512;28;20038;-78
2023/09/22 01:28:02;;;;;;;23.25;14.60;;;18.90;99.90;;;;;;4979950;28;20048;-78
2023/09/22 01:30:28;;;;;;;22.08;16.27;;;19.00;99.90;;;;;;4996165;28;20497;-78
2023/09/22 01:32:53;;;;;;;30.85;18.63;;;18.80;99.90;;;;;;4996188;28;20042;-78
2023/09/22 01:35:19;;;;;;;24.85;17.55;;;18.60;99.90;;;;;;4996269;28;20493;-78
2023/09/22 01:37:52;;;;;;;22.70;16.00;;;18.60;99.90;;;;;;4980282;28;20142;-78
2023/09/22 01:40:18;;;;;;;26.88;18.08;;;18.90;99.90;;;;;;4990878;28;20049;-78
2023/09/22 01:42:45;;;;;;;27.67;17.85;;;18.80;99.90;;;;;;4999663;28;20038;-77
2023/09/22 01:45:10;;;;;;;24.42;18.10;;;19.00;99.90;;;;;;4996243;28;20061;-77
2023/09/22 01:47:36;;;;;;;21.92;16.25;;;18.80;99.90;;;;;;4999444;28;20415;-77
2023/09/22 01:50:03;;;;;;;29.17;19.20;;;18.70;99.90;;;;;;4999883;28;20038;-77
2023/09/22 01:52:29;;;;;;;27.73;19.42;;;19.00;99.90;;;;;;5000773;28;20117;-78
2023/09/22 01:54:55;;;;;;;25.73;18.27;;;19.00;99.90;;;;;;5002648;28;20065;-78
2023/09/22 01:57:20;;;;;;;29.20;19.30;;;19.00;99.90;;;;;;5008209;28;20044;-77
2023/09/22 01:59:46;;;;;;;21.52;15.93;;;;;;;;;;5004903;28;20038;-76
2023/09/22 02:02:13;;;;;;;29.83;19.25;;;18.60;99.90;;;;;;5008614;28;20520;-77
2023/09/22 02:04:39;;;;;;;24.98;17.00;;;18.60;99.90;;;;;;5007321;28;20085;-77
2023/09/22 02:07:05;;;;;;;30.95;20.33;;;19.10;99.90;;;;;;5006867;28;20497;-77
2023/09/22 02:09:30;;;;;;;24.40;15.45;;;;;;;;;;5005146;28;20042;-76
2023/09/22 02:11:56;;;;;;;21.65;15.73;;;19.10;99.90;;;;;;4984428;28;20501;-77
2023/09/22 02:14:22;;;;;;;22.13;14.98;;;18.70;99.90;;;;;;5001505;28;20042;-78
2023/09/22 02:16:48;;;;;;;23.75;15.18;;;18.80;99.90;;;;;;4983867;28;20040;-77
2023/09/22 02:19:14;;;;;;;18.27;13.35;;;18.50;99.90;;;;;;5000640;28;20041;-77
2023/09/22 02:21:40;;;;;;;24.27;15.27;;;18.90;99.90;;;;;;5000674;28;20441;-77
2023/09/22 02:24:06;;;;;;;17.00;12.90;;;18.40;99.90;;;;;;5000021;28;20038;-77
2023/09/22 02:26:32;;;;;;;19.88;13.77;;;;;;;;;;5000844;28;20098;-78
2023/09/22 02:28:58;;;;;;;19.23;13.95;;;18.40;99.90;;;;;;5000549;28;20390;-77
2023/09/22 02:31:26;;;;;;;21.23;14.48;;;;;;;;;;5000977;28;20041;-76
2023/09/22 02:33:52;;;;;;;20.52;13.18;;;18.70;99.90;;;;;;4985351;28;20042;-78
2023/09/22 02:36:18;;;;;;;17.73;12.35;;;;;;;;;;5000766;28;20044;-76
2023/09/22 02:38:44;;;;;;;22.65;13.38;;;18.60;99.90;;;;;;5005173;28;20129;-76
2023/09/22 02:41:14;;;;;;;16.60;11.02;;;19.00;99.90;;;;;;5029305;28;20045;-75
2023/09/22 02:43:39;;;;;;;15.60;11.10;;;18.20;99.90;;;;;;5012028;28;20038;-78
2023/09/22 02:46:05;;;;;;;16.52;10.48;;;18.60;99.90;;;;;;5005436;28;20113;-78
2023/09/22 02:48:31;;;;;;;14.48;9.90;;;;;;;;;;4981024;28;20034;-77
2023/09/22 02:50:57;;;;;;;13.15;9.38;;;18.60;99.90;;;;;;5001937;28;20097;-77
2023/09/22 02:53:23;;;;;;;13.02;8.90;;;18.40;99.90;;;;;;5003623;28;20038;-77
2023/09/22 02:55:49;;;;;;;11.95;7.80;;;;;;;;;;5004461;28;20031;-76
2023/09/22 02:58:16;;;;;;;10.95;7.28;;;;;;;;;;5011715;28;20663;-76
2023/09/22 03:00:44;;;;;;;9.55;6.93;;;18.10;99.90;;;;;;4999668;28;20124;-77
2023/09/22 03:03:15;;;;;;;9.50;6.65;;;18.00;99.90;;;;;;4983289;28;20042;-77
2023/09/22 03:05:41;;;;;;;10.43;6.78;;;18.00;99.90;;;;;;4999801;28;20520;-77
2023/09/22 03:08:07;;;;;;;10.55;6.20;;;;;;;;;;4999206;28;20046;-76
2023/09/22 03:10:33;;;;;;;10.05;6.63;;;18.10;99.90;;;;;;4999754;28;20038;-77
2023/09/22 03:12:59;;;;;;;9.60;6.30;;;18.40;99.90;;;;;;4999659;28;20045;-77
2023/09/22 03:15:24;;;;;;;14.00;7.00;;;18.50;99.90;;;;;;5015801;28;20034;-78
2023/09/22 03:17:51;;;;;;;9.48;6.05;;;18.30;99.90;;;;;;4998960;28;20511;-77
2023/09/22 03:20:17;;;;;;;8.55;5.75;;;18.00;99.90;;;;;;4982261;28;20041;-77
2023/09/22 03:22:43;;;;;;;8.68;5.97;;;18.30;99.90;;;;;;4999715;28;20052;-78
2023/09/22 03:25:10;;;;;;;7.95;5.18;;;17.70;99.90;;;;;;5015431;28;20520;-78
2023/09/22 03:27:37;;;;;;;9.10;5.50;;;17.80;99.90;;;;;;4982543;28;20052;-77
2023/09/22 03:30:05;;;;;;;7.00;4.82;;;18.20;99.90;;;;;;5014871;28;20041;-77
2023/09/22 03:32:32;;;;;;;6.50;4.40;;;18.40;99.90;;;;;;4998455;28;20049;-77
2023/09/22 03:34:57;;;;;;;7.60;5.28;;;18.10;99.90;;;;;;4999434;28;20034;-77
2023/09/22 03:37:27;;;;;;;8.57;5.80;;;17.80;99.90;;;;;;4999424;28;20167;-79
2023/09/22 03:39:56;;;;;;;5.95;4.15;;;18.10;99.90;;;;;;4982682;28;20343;-78
2023/09/22 03:42:23;;;;;;;5.70;4.47;;;17.70;99.90;;;;;;4998046;28;20042;-78
2023/09/22 03:44:49;;;;;;;8.50;5.38;;;18.20;99.90;;;;;;4981943;28;20063;-76
2023/09/22 03:47:14;;;;;;;7.78;5.93;;;17.90;99.90;;;;;;4998221;28;20505;-77
2023/09/22 03:49:40;;;;;;;8.52;6.20;;;17.80;99.90;;;;;;4998031;28;20412;-78
2023/09/22 03:52:06;;;;;;;6.30;5.35;;;17.60;99.90;;;;;;4981429;28;20037;-78
2023/09/22 03:54:31;;;;;;;9.80;6.78;;;18.20;99.90;;;;;;4981134;28;20038;-78
2023/09/22 03:56:57;;;;;;;7.40;5.72;;;;;;;;;;4997419;28;20038;-78
2023/09/22 03:59:24;;;;;;;7.50;5.47;;;;;;;;;;4981145;28;20402;-77
2023/09/22 04:01:51;;;;;;;8.38;6.18;;;;;;;;;;4997343;28;20049;-76
2023/09/22 04:04:16;;;;;;;6.82;5.55;;;17.90;99.90;;;;;;4981109;28;20053;-78
2023/09/22 04:06:42;;;;;;;6.25;5.25;;;17.70;99.90;;;;;;4997596;28;20046;-78
2023/09/22 04:09:08;;;;;;;5.93;5.22;;;;;;;;;;4981072;28;20049;-77
2023/09/22 04:11:36;;;;;;;9.30;6.57;;;18.30;99.90;;;;;;4996474;28;20064;-77
2023/09/22 04:14:02;;;;;;;10.55;6.22;;;;;;;;;;4980599;28;20029;-76
2023/09/22 04:16:29;;;;;;;7.97;5.75;;;18.10;99.90;;;;;;4980870;28;20041;-77
2023/09/22 04:18:55;;;;;;;11.40;6.63;;;;;;;;;;4980943;28;20038;-78
2023/09/22 04:21:22;;;;;;;15.27;7.60;;;18.10;99.90;;;;;;4996973;28;20041;-78
2023/09/22 04:23:57;;;;;;;8.93;6.85;;;18.30;99.90;;;;;;4981855;28;20493;-78
2023/09/22 04:26:27;;;;;;;15.57;9.48;;;;;;;;;;4997138;28;20564;-75
2023/09/22 04:28:54;;;;;;;16.52;9.68;;;18.10;99.90;;;;;;4979911;28;20046;-77
2023/09/22 04:31:22;;;;;;;11.95;8.02;;;17.80;99.90;;;;;;4979759;28;20042;-78
2023/09/22 04:33:47;;;;;;;18.00;9.82;;;17.90;99.90;;;;;;4995980;28;20074;-78
2023/09/22 04:36:13;;;;;;;17.10;12.05;;;18.30;99.90;;;;;;4996275;28;20048;-79
2023/09/22 04:38:39;;;;;;;18.75;12.00;;;18.20;99.90;;;;;;4996267;28;20493;-78
2023/09/22 04:41:06;;;;;;;21.35;13.85;;;18.10;99.90;;;;;;4995882;28;20037;-78
2023/09/22 04:43:32;;;;;;;26.17;16.40;;;17.90;99.90;;;;;;4996436;28;20046;-78
2023/09/22 04:46:02;;;;;;;23.85;13.70;;;18.40;99.90;;;;;;4996196;28;20475;-79
2023/09/22 04:48:28;;;;;;;33.22;19.10;;;;;;;;;;4979802;28;20548;-78
2023/09/22 04:50:54;;;;;;;33.50;17.98;;;;;;;;;;4996303;28;20029;-77
2023/09/22 04:53:20;;;;;;;27.88;17.40;;;18.50;99.90;;;;;;4996613;28;20073;-79
2023/09/22 04:55:48;;;;;;;30.35;17.88;;;;;;;;;;4979439;28;20034;-77
2023/09/22 04:58:14;;;;;;;25.38;16.30;;;18.10;99.90;;;;;;4995506;28;20038;-79
2023/09/22 05:00:40;;;;;;;23.30;14.70;;;;;;;;;;4995539;28;20529;-76
2023/09/22 05:03:07;;;;;;;32.83;17.70;;;;;;;;;;4978812;28;20567;-77
2023/09/22 05:05:33;;;;;;;30.80;16.80;;;18.20;99.90;;;;;;4995419;28;20497;-78
2023/09/22 05:07:59;;;;;;;26.10;16.40;;;;;;;;;;4975319;28;20372;-78
2023/09/22 05:10:25;;;;;;;29.70;16.83;;;17.90;99.90;;;;;;4978689;28;20099;-77
2023/09/22 05:12:52;;;;;;;31.52;16.88;;;;;;;;;;4995901;28;20399;-78
2023/09/22 05:15:18;;;;;;;26.88;16.05;;;18.10;99.90;;;;;;4981261;28;20084;-78
2023/09/22 05:17:44;;;;;;;28.13;15.63;;;;;;;;;;5002187;28;20346;-78
2023/09/22 05:20:13;;;;;;;32.08;17.92;;;17.80;99.90;;;;;;5001933;28;20517;-79
2023/09/22 05:22:40;;;;;;;26.58;16.63;;;18.30;99.90;;;;;;5001809;28;20576;-77
2023/09/22 05:25:06;;;;;;;26.50;16.70;;;18.00;99.90;;;;;;5001489;28;20552;-78
2023/09/22 05:27:32;;;;;;;27.65;17.42;;;18.00;99.90;;;;;;5001235;28;20120;-78
2023/09/22 05:29:58;;;;;;;24.88;15.52;;;;;;;;;;4990586;28;20493;-77
2023/09/22 05:32:24;;;;;;;26.35;16.00;;;;;;;;;;4997301;28;20042;-77
2023/09/22 05:34:51;;;;;;;30.08;17.38;;;17.70;99.90;;;;;;4997774;28;20044;-78
2023/09/22 05:37:18;;;;;;;25.55;16.20;;;18.20;99.90;;;;;;4992471;28;20027;-78
2023/09/22 05:39:44;;;;;;;26.42;15.95;;;;;;;;;;5010529;28;20553;-77
2023/09/22 05:42:11;;;;;;;29.40;17.80;;;18.10;99.90;;;;;;4990633;28;20052;-79
2023/09/22 05:44:37;;;;;;;34.35;20.13;;;17.80;99.90;;;;;;4976872;28;20056;-78
2023/09/22 05:47:03;;;;;;;30.52;19.40;;;17.90;99.90;;;;;;4978172;28;20045;-78
2023/09/22 05:49:29;;;;;;;35.88;20.10;;;17.70;99.90;;;;;;4990775;28;20034;-78
2023/09/22 05:51:55;;;;;;;28.23;17.80;;;;;;;;;;4982735;28;20034;-78
2023/09/22 05:54:21;;;;;;;30.00;18.65;;;;;;;;;;5016694;28;20042;-77
2023/09/22 05:56:47;;;;;;;35.75;20.90;;;;;;;;;;5002135;28;20042;-77
2023/09/22 05:59:13;;;;;;;35.28;20.27;;;18.10;99.90;;;;;;4986428;28;20038;-77
2023/09/22 06:01:39;;;;;;;29.10;18.88;;;;;;;;;;5011854;28;20052;-77
2023/09/22 06:04:06;;;;;;;28.92;19.23;;;;;;;;;;4982999;28;20044;-78
2023/09/22 06:06:32;;;;;;;40.13;22.85;;;17.80;99.90;;;;;;4999138;28;20050;-78
2023/09/22 06:08:59;;;;;;;35.70;20.67;;;17.80;99.90;;;;;;4997749;28;20072;-77
2023/09/22 06:11:25;;;;;;;31.63;19.17;;;;;;;;;;4996532;28;20082;-78
2023/09/22 06:13:51;;;;;;;29.88;20.45;;;17.80;99.90;;;;;;4996558;28;20088;-78
2023/09/22 06:16:18;;;;;;;30.83;19.38;;;;;;;;;;4992295;28;20034;-78
2023/09/22 06:18:44;;;;;;;33.88;20.38;;;;;;;;;;4977603;28;20459;-77
2023/09/22 06:21:10;;;;;;;29.38;19.30;;;18.10;99.90;;;;;;4995211;28;20046;-78
2023/09/22 06:23:36;;;;;;;32.85;19.50;;;;;;;;;;4988990;28;20099;-77
2023/09/22 06:26:05;;;;;;;29.50;18.88;;;17.90;99.90;;;;;;4996892;28;20033;-77
2023/09/22 06:28:31;;;;;;;38.67;21.42;;;17.60;99.90;;;;;;5006275;28;20036;-77
2023/09/22 06:31:04;;;;;;;34.50;19.50;;;18.30;99.90;;;;;;5019554;28;20689;-78
2023/09/22 06:33:30;;;;;;;37.45;20.92;;;18.00;99.90;;;;;;5013305;28;20041;-78
2023/09/22 06:36:01;;;;;;;41.42;21.80;;;18.20;99.90;;;;;;4982532;28;20034;-78
2023/09/22 06:38:27;;;;;;;35.92;19.52;;;18.00;99.90;;;;;;4988340;28;20046;-77
2023/09/22 06:40:56;;;;;;;35.97;18.80;;;;;;;;;;4989720;28;20504;-77
2023/09/22 06:43:25;;;;;;;31.98;19.77;;;18.70;99.90;;;;;;4989489;28;20069;-78
2023/09/22 06:45:52;;;;;;;34.88;19.88;;;18.90;99.90;;;;;;4973030;28;20374;-78
2023/09/22 06:48:27;;;;;;;32.15;19.20;;;18.40;99.90;;;;;;4990833;28;20037;-78
2023/09/22 06:50:54;;;;;;;32.17;19.02;;;18.30;99.90;;;;;;4977045;28;20537;-78
2023/09/22 06:53:21;;;;;;;31.50;18.63;;;18.40;99.90;;;;;;4969175;28;20046;-77
2023/09/22 06:55:48;;;;;;;32.78;19.13;;;18.10;99.90;;;;;;4991367;28;20044;-78
2023/09/22 06:58:14;;;;;;;33.05;19.77;;;;;;;;;;4994485;28;20088;-75
2023/09/22 07:00:40;;;;;;;33.10;19.63;;;;;;;;;;5004388;28;20064;-76
2023/09/22 07:03:06;;;;;;;27.20;17.23;;;18.10;99.90;;;;;;4981631;28;20045;-77
2023/09/22 07:05:32;;;;;;;31.13;18.55;;;;;;;;;;4989512;28;20038;-78
2023/09/22 07:07:58;;;;;;;27.90;17.30;;;;;;;;;;4977382;28;20072;-77
2023/09/22 07:10:24;;;;;;;28.05;16.48;;;;;;;;;;4972694;28;20278;-77
2023/09/22 07:12:51;;;;;;;31.70;18.05;;;18.60;99.90;;;;;;4993988;28;20053;-77
2023/09/22 07:15:17;;;;;;;30.58;17.17;;;;;;;;;;4997749;28;20065;-77
2023/09/22 07:17:44;;;;;;;32.08;17.70;;;18.50;99.90;;;;;;4996271;28;20156;-79
2023/09/22 07:20:12;;;;;;;25.77;16.15;;;18.70;99.90;;;;;;4995405;28;20052;-77
2023/09/22 07:22:38;;;;;;;32.30;18.10;;;18.30;99.90;;;;;;4977261;28;20557;-78
2023/09/22 07:25:04;;;;;;;23.45;15.77;;;18.50;99.90;;;;;;4994456;28;20117;-78
2023/09/22 07:27:29;;;;;;;23.27;14.93;;;18.50;99.90;;;;;;4976074;28;20061;-78
2023/09/22 07:29:55;;;;;;;23.13;14.10;;;;;;;;;;4996766;28;20076;-78
2023/09/22 07:32:21;;;;;;;24.45;14.95;;;;;;;;;;4967613;28;20457;-77
2023/09/22 07:34:51;;;;;;;23.92;14.38;;;18.80;99.90;;;;;;4983498;28;20037;-76
2023/09/22 07:37:17;;;;;;;23.77;14.50;;;18.80;99.90;;;;;;5019051;28;20022;-78
2023/09/22 07:39:42;;;;;;;28.20;15.85;;;18.40;99.90;;;;;;5007358;28;20053;-78
2023/09/22 07:42:09;;;;;;;24.60;13.73;;;18.90;99.90;;;;;;4997727;28;20050;-80
2023/09/22 07:44:37;;;;;;;23.23;13.18;;;18.90;99.90;;;;;;4966040;28;20065;-79
2023/09/22 07:47:10;;;;;;;22.05;14.15;;;18.50;99.90;;;;;;4998468;28;20567;-79
2023/09/22 07:49:42;;;;;;;28.95;15.20;;;18.80;99.90;;;;;;4999348;28;20048;-79
2023/09/22 07:52:11;;;;;;;31.88;15.32;;;18.80;99.90;;;;;;4998139;28;20068;-79
2023/09/22 07:54:37;;;;;;;25.40;13.50;;;19.00;99.90;;;;;;5016271;28;20489;-78
2023/09/22 07:57:03;;;;;;;21.50;12.68;;;18.80;99.90;;;;;;4979042;28;20041;-77
2023/09/22 07:59:30;;;;;;;20.75;12.13;;;;;;;;;;4995320;28;20046;-78
2023/09/22 08:01:59;;;;;;;19.92;12.52;;;18.80;99.90;;;;;;4995210;28;20071;-77
2023/09/22 08:04:25;;;;;;;22.25;13.00;;;;;;;;;;4995381;28;20526;-78
2023/09/22 08:06:50;;;;;;;17.88;11.77;;;19.10;99.90;;;;;;4995397;28;20439;-78
2023/09/22 08:09:16;;;;;;;19.08;13.57;;;;;;;;;;4995282;28;20069;-78
2023/09/22 08:11:42;;;;;;;23.15;13.75;;;19.10;99.90;;;;;;4978975;28;20520;-78
2023/09/22 08:14:08;;;;;;;21.23;12.80;;;19.00;99.90;;;;;;4995182;28;20049;-78
2023/09/22 08:16:35;;;;;;;17.90;12.45;;;19.00;99.90;;;;;;4978855;28;20125;-78
2023/09/22 08:19:00;;;;;;;18.98;11.88;;;18.80;99.90;;;;;;4978653;28;20049;-78
2023/09/22 08:21:26;;;;;;;17.10;12.73;;;18.90;99.90;;;;;;4995082;28;20038;-78
2023/09/22 08:23:52;;;;;;;20.50;12.10;;;;;;;;;;4995098;28;20076;-78
2023/09/22 08:26:18;;;;;;;17.55;11.60;;;19.40;99.90;;;;;;4978702;28;20368;-78
2023/09/22 08:28:44;;;;;;;20.05;11.10;;;19.30;99.90;;;;;;4994765;28;20511;-78
2023/09/22 08:31:11;;;;;;;16.00;11.27;;;19.50;99.90;;;;;;4994850;28;20030;-78
2023/09/22 08:33:37;;;;;;;17.77;11.18;;;19.80;99.90;;;;;;4994994;28;20073;-78
2023/09/22 08:36:03;;;;;;;20.80;12.43;;;19.70;99.90;;;;;;4995153;28;20038;-78
2023/09/22 08:38:31;;;;;;;16.52;10.90;;;19.20;99.90;;;;;;4994518;28;20524;-78
2023/09/22 08:40:59;;;;;;;17.17;11.57;;;19.50;99.90;;;;;;4994641;28;20042;-78
2023/09/22 08:43:26;;;;;;;18.15;12.50;;;19.90;99.90;;;;;;4994939;28;20052;-78
2023/09/22 08:45:52;;;;;;;15.43;10.55;;;20.00;99.90;;;;;;4994627;28;20120;-78
2023/09/22 08:48:18;;;;;;;20.40;11.02;;;;;;;;;;4978202;28;20124;-78
2023/09/22 08:50:45;;;;;;;16.67;10.20;;;20.00;99.90;;;;;;4993892;28;20046;-78
2023/09/22 08:53:14;;;;;;;13.05;8.90;;;20.40;99.90;;;;;;4994262;28;20042;-78
2023/09/22 08:55:40;;;;;;;12.43;9.68;;;20.10;99.90;;;;;;4995227;28;20042;-78
2023/09/22 08:58:06;;;;;;;15.73;9.10;;;;;;;;;;4994197;28;20521;-78
2023/09/22 09:00:32;;;;;;;9.90;8.25;;;;;;;;;;4994430;28;20129;-78
2023/09/22 09:03:05;;;;;;;12.18;8.60;;;19.80;99.90;;;;;;4994678;28;20509;-78
2023/09/22 09:05:32;;;;;;;14.05;7.88;;;19.90;99.90;;;;;;4978237;28;20566;-78
2023/09/22 09:08:36;;;;;;;9.80;7.07;;;19.90;99.90;;;;;;4994189;28;20053;-78
2023/09/22 09:11:10;;;;;;;11.95;7.38;;;19.90;99.90;;;;;;4935358;29;20050;-78
2023/09/22 09:13:37;;;;;;;8.18;6.82;;;19.50;99.90;;;;;;4987231;28;20053;-78
2023/09/22 09:16:06;;;;;;;9.55;7.30;;;;;;;;;;4978780;28;20044;-78
2023/09/22 09:18:32;;;;;;;9.93;6.93;;;20.10;99.90;;;;;;4979067;28;20064;-78
2023/09/22 09:21:12;;;;;;;13.52;6.82;;;20.50;99.90;;;;;;4994211;28;20490;-78
2023/09/22 09:23:56;;;;;;;8.52;5.18;;;20.40;99.90;;;;;;4994421;28;20121;-78
2023/09/22 09:26:31;;;;;;;5.45;3.53;;;20.40;99.90;;;;;;4978106;28;20398;-78
2023/09/22 09:29:00;;;;;;;6.88;3.00;;;20.50;99.90;;;;;;4994077;28;20034;-78
2023/09/22 09:31:46;;;;;;;3.10;2.60;;;20.60;99.90;;;;;;4992240;28;20446;-78
2023/09/22 09:34:12;;;;;;;5.78;2.65;;;21.00;99.90;;;;;;4972484;28;20033;-78
2023/09/22 09:36:38;;;;;;;4.78;2.20;;;20.70;99.90;;;;;;4994124;28;20048;-78
2023/09/22 09:39:04;;;;;;;3.70;2.20;;;20.50;99.90;;;;;;4978070;28;20030;-78
2023/09/22 09:41:31;;;;;;;2.70;2.00;;;20.40;99.90;;;;;;4982946;28;20048;-79
2023/09/22 09:44:01;;;;;;;5.00;2.45;;;20.50;99.90;;;;;;5003173;28;20074;-78
2023/09/22 09:46:28;;;;;;;4.93;2.25;;;20.70;99.90;;;;;;5006595;28;20441;-79
2023/09/22 09:48:55;;;;;;;2.40;2.13;;;20.60;99.90;;;;;;5004215;28;20050;-79
2023/09/22 09:51:24;;;;;;;6.80;2.10;;;20.60;99.90;;;;;;5001376;28;20084;-79
2023/09/22 09:53:55;;;;;;;3.80;2.15;;;20.60;99.90;;;;;;5004009;28;20060;-79
2023/09/22 09:56:23;;;;;;;5.05;2.40;;;20.40;99.90;;;;;;5016256;28;20045;-78
2023/09/22 09:58:49;;;;;;;2.92;2.08;;;20.40;99.90;;;;;;4996588;28;20041;-78
2023/09/22 10:01:17;;;;;;;3.00;1.98;;;20.60;99.90;;;;;;5014066;28;20077;-79
2023/09/22 10:03:43;;;;;;;2.75;2.10;;;20.90;99.90;;;;;;5018928;28;20053;-79
2023/09/22 10:06:13;;;;;;;2.40;1.80;;;21.30;99.90;;;;;;4984213;28;20100;-79
2023/09/22 10:08:39;;;;;;;5.45;2.13;;;21.10;99.90;;;;;;4983671;28;20054;-79
2023/09/22 10:11:07;;;;;;;3.42;1.75;;;21.30;99.90;;;;;;5000465;28;20052;-79
2023/09/22 10:13:35;;;;;;;4.72;2.00;;;21.10;99.90;;;;;;4984433;28;20478;-79
2023/09/22 10:16:08;;;;;;;4.97;2.58;;;21.40;99.90;;;;;;5002263;28;20106;-79
2023/09/22 10:18:45;;;;;;;;;;;21.60;99.90;;;;;;5000149;28;20053;-79
2023/09/22 10:21:30;;;;;;;3.63;1.73;;;21.10;99.90;;;;;;5000993;28;19970;-79
2023/09/22 10:24:37;;;;;;;1.63;1.33;;;21.40;99.90;;;;;;5000537;28;20103;-79
2023/09/22 10:27:11;;;;;;;3.95;1.60;;;21.20;99.90;;;;;;4921741;29;20062;-79
2023/09/22 10:29:52;;;;;;;4.07;1.85;;;21.20;99.90;;;;;;4991769;28;20058;-79
2023/09/22 10:32:18;;;;;;;1.70;1.60;;;;;;;;;;5000277;28;20038;-79
2023/09/22 10:34:51;;;;;;;3.25;2.10;;;21.10;99.90;;;;;;4980568;28;20108;-79
2023/09/22 10:37:21;;;;;;;3.30;1.90;;;21.00;99.90;;;;;;5016607;28;20034;-79
2023/09/22 10:40:11;;;;;;;2.03;1.70;;;21.20;99.90;;;;;;4980182;28;20048;-80
2023/09/22 10:42:50;;;;;;;5.35;2.35;;;21.10;99.90;;;;;;4972321;28;20127;-80
2023/09/22 10:45:21;;;;;;;2.80;1.70;;;21.30;99.90;;;;;;4967646;28;20046;-80
2023/09/22 10:47:51;;;;;;;2.60;1.80;;;21.20;99.90;;;;;;5004125;28;20497;-80
2023/09/22 10:50:24;;;;;;;3.60;1.70;;;21.30;99.90;;;;;;4982366;28;20045;-80
2023/09/22 10:52:57;;;;;;;1.77;1.60;;;21.40;99.90;;;;;;5008279;28;20108;-80
2023/09/22 10:55:23;;;;;;;2.75;1.80;;;;;;;;;;4995234;28;20042;-80
2023/09/22 10:57:49;;;;;;;2.00;1.80;;;21.50;99.90;;;;;;4999519;28;20057;-79
2023/09/22 11:00:18;;;;;;;1.85;1.50;;;21.60;99.90;;;;;;4984725;28;20124;-80
2023/09/22 11:02:44;;;;;;;1.70;1.60;;;;;;;;;;4982859;28;20033;-81
2023/09/22 11:05:13;;;;;;;3.63;1.80;;;21.60;99.90;;;;;;5013089;28;20061;-80
2023/09/22 11:07:42;;;;;;;4.22;1.65;;;21.60;99.90;;;;;;5026399;28;20052;-79
2023/09/22 11:10:08;;;;;;;1.90;1.80;;;21.40;99.90;;;;;;5009055;28;20038;-78
2023/09/22 11:12:34;;;;;;;4.68;1.80;;;21.40;99.90;;;;;;4988920;28;20034;-80
2023/09/22 11:15:03;;;;;;;3.85;1.60;;;21.70;99.90;;;;;;5007656;28;20063;-80
2023/09/22 11:17:47;;;;;;;3.80;1.48;;;21.50;99.90;;;;;;5007302;28;20077;-81
2023/09/22 11:20:16;;;;;;;2.22;1.70;;;21.70;99.90;;;;;;4999647;28;20413;-78
2023/09/22 11:22:43;;;;;;;1.67;1.58;;;21.80;99.90;;;;;;4999168;28;20121;-77
2023/09/22 11:25:12;;;;;;;2.33;1.77;;;22.00;99.90;;;;;;5011299;28;20037;-80
2023/09/22 11:27:52;;;;;;;1.67;1.30;;;22.10;99.90;;;;;;4991838;28;20048;-80
2023/09/22 11:30:25;;;;;;;1.85;1.60;;;22.10;99.90;;;;;;5005046;28;20034;-80
2023/09/22 11:32:51;;;;;;;1.85;1.50;;;22.20;99.90;;;;;;5003753;28;20046;-80
2023/09/22 11:35:32;;;;;;;3.97;1.45;;;22.00;99.90;;;;;;4996636;28;20049;-79
2023/09/22 11:37:58;;;;;;;1.92;1.50;;;22.20;99.90;;;;;;4999151;28;20422;-79
2023/09/22 11:40:28;;;;;;;3.35;1.30;;;22.20;99.90;;;;;;4986530;28;20030;-80
2023/09/22 11:42:54;;;;;;;2.25;1.30;;;21.80;99.90;;;;;;5001524;28;20046;-80
2023/09/22 11:45:23;;;;;;;4.53;1.58;;;21.90;99.90;;;;;;5000699;28;20041;-81
2023/09/22 11:48:01;;;;;;;2.08;1.58;;;21.60;99.90;;;;;;5000262;28;20585;-79
2023/09/22 11:50:27;;;;;;;1.92;1.60;;;21.50;99.90;;;;;;5000272;28;20049;-80
2023/09/22 11:53:19;;;;;;;4.38;1.58;;;21.70;99.90;;;;;;4983761;28;20042;-80
2023/09/22 11:55:46;;;;;;;1.58;1.48;;;21.60;99.90;;;;;;4984205;28;20087;-80
2023/09/22 11:58:14;;;;;;;2.33;1.30;;;21.60;99.90;;;;;;5017111;28;20345;-80
2023/09/22 12:00:40;;;;;;;1.27;1.17;;;22.00;99.90;;;;;;5018452;28;20041;-81
2023/09/22 12:03:05;;;;;;;1.55;0.98;;;22.10;99.90;;;;;;4994586;28;20121;-80
2023/09/22 12:05:31;;;;;;;2.83;1.30;;;22.30;99.90;;;;;;4984355;28;20104;-81
2023/09/22 12:07:57;;;;;;;1.63;1.13;;;22.60;99.90;;;;;;4973053;28;20654;-80
2023/09/22 12:10:22;;;;;;;4.00;1.40;;;22.60;99.90;;;;;;5003185;28;20046;-80
2023/09/22 12:12:48;;;;;;;1.83;1.33;;;22.30;99.90;;;;;;5012911;28;20026;-80
2023/09/22 12:15:14;;;;;;;1.52;1.00;;;22.60;99.90;;;;;;5010131;28;20034;-80
2023/09/22 12:17:39;;;;;;;1.40;1.30;;;22.10;99.90;;;;;;4997426;28;20456;-80
2023/09/22 12:20:06;;;;;;;2.30;1.40;;;22.00;99.90;;;;;;4984257;28;20069;-80
2023/09/22 12:22:31;;;;;;;2.22;1.30;;;21.90;99.90;;;;;;5006407;28;20049;-79
2023/09/22 12:24:57;;;;;;;2.30;1.63;;;21.80;99.90;;;;;;4996404;28;20038;-79
2023/09/22 12:27:23;;;;;;;2.70;1.52;;;21.80;99.90;;;;;;5008106;28;20035;-79
2023/09/22 12:29:48;;;;;;;4.35;1.48;;;21.90;99.90;;;;;;4995624;28;20594;-80
2023/09/22 12:32:14;;;;;;;1.48;1.23;;;21.80;99.90;;;;;;4994891;28;20489;-80
2023/09/22 12:34:39;;;;;;;2.38;1.30;;;21.80;99.90;;;;;;4992687;28;20449;-80
2023/09/22 12:37:06;;;;;;;2.17;1.40;;;22.00;99.90;;;;;;5011929;28;20034;-79
2023/09/22 12:39:31;;;;;;;3.13;1.58;;;21.90;99.90;;;;;;5017731;28;20038;-79
2023/09/22 12:41:57;;;;;;;5.22;1.83;;;21.70;99.90;;;;;;5000292;28;20456;-79
2023/09/22 12:44:23;;;;;;;2.15;1.40;;;21.50;99.90;;;;;;4982770;28;20042;-74
2023/09/22 12:46:49;;;;;;;2.22;1.27;;;21.80;99.90;;;;;;4994248;28;20081;-77
2023/09/22 12:49:15;;;;;;;4.15;1.38;;;21.50;99.90;;;;;;4980370;28;20536;-78
2023/09/22 12:51:41;;;;;;;3.60;1.20;;;21.30;99.90;;;;;;4981382;28;20046;-79
2023/09/22 12:54:07;;;;;;;2.13;1.40;;;21.40;99.90;;;;;;4999621;28;20050;-79
2023/09/22 12:56:33;;;;;;;3.72;1.00;;;21.30;99.90;;;;;;4999430;28;20044;-79